Time;durP1;ratioP1;P1;durP2;ratioP2;P2;SDS_P1;SDS_P2;PMS_P1;PMS_P2;Temp;Humidity;BMP_temperature;BMP_pressure;BME280_temperature;BME280_humidity;BME280_pressure;Samples;Min_cycle;Max_cycle;Signal;HPM_P1;HPM_P2
2022/05/07 00:01:20;;;;;;;;;;;;;;;;;;5031485;28;19916;-67
2022/05/07 00:03:46;;;;;;;;;;;;;;;;;;5022466;28;19921;-66
2022/05/07 00:06:12;;;;;;;;;;;;;;;;;;5023939;28;20434;-66
2022/05/07 00:08:38;;;;;;;;;;;;;;;;;;5020442;28;19942;-67
2022/05/07 00:11:04;;;;;;;;;;;;;;;;;;5025344;28;20384;-67
2022/05/07 00:13:30;;;;;;;;;;;;;;;;;;5024908;28;20372;-67
2022/05/07 00:18:40;;;;;;;;;;;;;;;;;;5024235;28;20314;-67
2022/05/07 00:21:06;;;;;;;;;;;;;;;;;;5013985;28;20131;-67
2022/05/07 00:23:32;;;;;;;;;;;;;;;;;;5016549;28;19967;-67
2022/05/07 00:25:58;;;;;;;;;;;;;;;;;;5026994;28;20685;-67
2022/05/07 00:28:24;;;;;;;;;;;;;;;;;;5013415;28;19921;-67
2022/05/07 00:30:50;;;;;;;;;;;;;;;;;;5010706;28;19995;-68
2022/05/07 00:33:16;;;;;;;;;;;;;;;;;;5028156;28;19973;-66
2022/05/07 00:35:42;;;;;;;;;;;;;;;;;;5004415;28;20610;-68
2022/05/07 00:38:08;;;;;;;;;;;;;;;;;;5007722;28;19917;-67
2022/05/07 00:40:36;;;;;;;;;;;;;;;;;;5020121;28;20511;-67
2022/05/07 00:43:02;;;;;;;;;;;;;;;;;;5014776;28;20320;-67
2022/05/07 00:45:28;;;;;;;;;;;;;;;;;;5040792;28;19917;-66
2022/05/07 00:47:54;;;;;;;;;;;;;;;;;;5025808;28;20547;-67
2022/05/07 00:53:05;;;;;;;;;;;;;;;;;;5023601;28;20433;-66
2022/05/07 00:55:31;;;;;;;;;;;;;;;;;;5022098;28;20673;-66
2022/05/07 00:57:57;;;;;;;;;;;;;;;;;;5024914;28;19927;-66
2022/05/07 01:00:23;;;;;;;;;;;;;;;;;;5031273;28;20380;-66
2022/05/07 01:02:49;;;;;;;;;;;;;;;;;;5029377;28;19916;-66
2022/05/07 01:05:15;;;;;;;;;;;;;;;;;;5024937;28;19916;-66
2022/05/07 01:07:45;;;;;;;;;;;;;;;;;;5035211;28;19991;-66
2022/05/07 01:10:11;;;;;;;;;;;;;;;;;;5030638;28;19936;-66
2022/05/07 01:12:37;;;;;;;;;;;;;;;;;;5023529;28;19917;-66
2022/05/07 01:15:04;;;;;;;;;;;;;;;;;;5011171;28;19920;-66
2022/05/07 01:17:30;;;;;;;;;;;;;;;;;;5032386;28;19994;-66
2022/05/07 01:19:56;;;;;;;;;;;;;;;;;;5007586;28;19929;-66
2022/05/07 01:22:22;;;;;;;;;;;;;;;;;;5026572;28;19921;-66
2022/05/07 01:24:48;;;;;;;;;;;;;;;;;;5043160;28;19916;-65
2022/05/07 01:27:14;;;;;;;;;;;;;;;;;;5013957;28;19912;-66
2022/05/07 01:29:41;;;;;;;;;;;;;;;;;;5025841;28;19923;-68
2022/05/07 01:32:07;;;;;;;;;;;;;;;;;;5032695;28;19916;-68
2022/05/07 01:34:33;;;;;;;;;;;;;;;;;;5026629;28;20287;-66
2022/05/07 01:36:59;;;;;;;;;;;;;;;;;;5021607;28;19917;-66
2022/05/07 01:39:25;;;;;;;;;;;;;;;;;;5014237;28;20510;-65
2022/05/07 01:41:51;;;;;;;;;;;;;;;;;;5009475;28;19947;-68
2022/05/07 01:44:17;;;;;;;;;;;;;;;;;;5028025;28;20303;-67
2022/05/07 01:49:27;;;;;;;;;;;;;;;;;;5024640;28;19932;-66
2022/05/07 01:51:53;;;;;;;;;;;;;;;;;;5024841;28;19924;-66
2022/05/07 01:54:19;;;;;;;;;;;;;;;;;;5025644;28;19923;-65
2022/05/07 01:56:45;;;;;;;;;;;;;;;;;;5021684;28;19916;-68
2022/05/07 01:59:11;;;;;;;;;;;;;;;;;;5030929;28;19916;-68
2022/05/07 02:01:37;;;;;;;;;;;;;;;;;;5025449;28;19928;-65
2022/05/07 02:04:03;;;;;;;;;;;;;;;;;;5031069;28;19921;-66
2022/05/07 02:06:29;;;;;;;;;;;;;;;;;;5029104;28;19975;-66
2022/05/07 02:08:55;;;;;;;;;;;;;;;;;;5027471;28;21092;-67
2022/05/07 02:11:21;;;;;;;;;;;;;;;;;;5027030;28;20991;-66
2022/05/07 02:13:47;;;;;;;;;;;;;;;;;;5020722;28;20011;-66
2022/05/07 02:16:13;;;;;;;;;;;;;;;;;;5012684;28;19927;-65
2022/05/07 02:18:39;;;;;;;;;;;;;;;;;;5006241;28;20255;-65
2022/05/07 02:21:05;;;;;;;;;;;;;;;;;;5025976;28;19978;-66
2022/05/07 02:23:31;;;;;;;;;;;;;;;;;;5010389;28;19916;-65
2022/05/07 02:25:57;;;;;;;;;;;;;;;;;;5020254;28;20404;-65
2022/05/07 02:28:23;;;;;;;;;;;;;;;;;;5023965;28;20066;-66
2022/05/07 02:30:49;;;;;;;;;;;;;;;;;;5026013;28;19916;-66
2022/05/07 02:33:15;;;;;;;;;;;;;;;;;;5005877;28;19917;-65
2022/05/07 02:35:41;;;;;;;;;;;;;;;;;;5021887;28;20041;-65
2022/05/07 02:38:07;;;;;;;;;;;;;;;;;;5026453;28;20286;-66
2022/05/07 02:42:33;;;;;;;;;;;;;;;;;;5026009;28;20346;-65
2022/05/07 02:43:19;;;;;;;;;;;;;;;;;;5022549;28;19940;-66
2022/05/07 02:45:45;;;;;;;;;;;;;;;;;;5009723;28;20520;-65
2022/05/07 02:48:13;;;;;;;;;;;;;;;;;;5027626;28;19944;-65
2022/05/07 02:50:39;;;;;;;;;;;;;;;;;;5008678;28;19966;-65
2022/05/07 02:53:05;;;;;;;;;;;;;;;;;;5023377;28;20369;-65
2022/05/07 02:55:31;;;;;;;;;;;;;;;;;;5025045;28;19921;-65
2022/05/07 02:57:57;;;;;;;;;;;;;;;;;;5026327;28;20291;-66
2022/05/07 03:00:23;;;;;;;;;;;;;;;;;;5027265;28;19951;-66
2022/05/07 03:02:49;;;;;;;;;;;;;;;;;;5025253;28;19917;-68
2022/05/07 03:05:15;;;;;;;;;;;;;;;;;;5027241;28;19928;-68
2022/05/07 03:07:41;;;;;;;;;;;;;;;;;;5022396;28;20481;-65
2022/05/07 03:10:07;;;;;;;;;;;;;;;;;;5012227;28;19928;-65
2022/05/07 03:12:33;;;;;;;;;;;;;;;;;;5027533;28;20497;-65
2022/05/07 03:14:59;;;;;;;;;;;;;;;;;;5021410;28;20212;-66
2022/05/07 03:17:26;;;;;;;;;;;;;;;;;;5004370;28;19916;-66
2022/05/07 03:19:52;;;;;;;;;;;;;;;;;;5021890;28;19971;-66
2022/05/07 03:22:18;;;;;;;;;;;;;;;;;;5012254;28;19927;-66
2022/05/07 03:24:44;;;;;;;;;;;;;;;;;;5024137;28;19917;-66
2022/05/07 03:27:10;;;;;;;;;;;;;;;;;;5029788;28;19925;-66
2022/05/07 03:29:36;;;;;;;;;;;;;;;;;;5020049;28;19917;-66
2022/05/07 03:32:02;;;;;;;;;;;;;;;;;;5026515;28;19925;-65
2022/05/07 03:34:28;;;;;;;;;;;;;;;;;;5029415;28;19920;-67
2022/05/07 03:36:54;;;;;;;;;;;;;;;;;;5028071;28;19920;-66
2022/05/07 03:39:20;;;;;;;;;;;;;;;;;;5024891;28;19975;-66
2022/05/07 03:41:46;;;;;;;;;;;;;;;;;;5027456;28;19917;-66
2022/05/07 03:44:12;;;;;;;;;;;;;;;;;;5033530;28;20404;-67
2022/05/07 03:46:38;;;;;;;;;;;;;;;;;;5027302;28;19927;-65
2022/05/07 03:49:04;;;;;;;;;;;;;;;;;;5030540;28;19977;-66
2022/05/07 03:53:29;;;;;;;;;;;;;;;;;;5028382;28;20189;-65
2022/05/07 03:54:16;;;;;;;;;;;;;;;;;;5026756;28;19916;-66
2022/05/07 03:56:42;;;;;;;;;;;;;;;;;;5024474;28;19968;-66
2022/05/07 03:59:08;;;;;;;;;;;;;;;;;;5026476;28;19916;-67
2022/05/07 04:01:34;;;;;;;;;;;;;;;;;;5029689;28;19916;-67
2022/05/07 04:04:00;;;;;;;;;;;;;;;;;;5027388;28;20597;-67
2022/05/07 04:06:28;;;;;;;;;;;;;;;;;;5027166;28;19970;-65
2022/05/07 04:08:54;;;;;;;;;;;;;;;;;;5013249;28;19924;-65
2022/05/07 04:11:20;;;;;;;;;;;;;;;;;;5026942;28;20282;-65
2022/05/07 04:13:46;;;;;;;;;;;;;;;;;;5005428;28;19917;-65
2022/05/07 04:16:12;;;;;;;;;;;;;;;;;;5012913;28;19974;-66
2022/05/07 04:18:38;;;;;;;;;;;;;;;;;;5020879;28;19929;-65
2022/05/07 04:21:04;;;;;;;;;;;;;;;;;;5030241;28;19956;-66
2022/05/07 04:23:30;;;;;;;;;;;;;;;;;;5025456;28;19922;-66
2022/05/07 04:25:57;;;;;;;;;;;;;;;;;;5025220;28;19922;-65
2022/05/07 04:28:23;;;;;;;;;;;;;;;;;;5026977;28;20151;-66
2022/05/07 04:30:49;;;;;;;;;;;;;;;;;;5024514;28;19917;-66
2022/05/07 04:33:14;;;;;;;;;;;;;;;;;;5011642;28;19917;-65
2022/05/07 04:35:40;;;;;;;;;;;;;;;;;;5028822;28;19920;-66
2022/05/07 04:38:06;;;;;;;;;;;;;;;;;;5029253;28;20401;-66
2022/05/07 04:40:32;;;;;;;;;;;;;;;;;;5028634;28;20443;-68
2022/05/07 04:42:58;;;;;;;;;;;;;;;;;;5028178;28;19921;-66
2022/05/07 04:45:25;;;;;;;;;;;;;;;;;;5028082;28;20313;-66
2022/05/07 04:47:51;;;;;;;;;;;;;;;;;;5024845;28;20059;-66
2022/05/07 04:50:17;;;;;;;;;;;;;;;;;;5028082;28;19932;-66
2022/05/07 04:52:43;;;;;;;;;;;;;;;;;;5007620;28;20485;-66
2022/05/07 04:55:09;;;;;;;;;;;;;;;;;;5025658;28;19913;-66
2022/05/07 04:57:36;;;;;;;;;;;;;;;;;;5012051;28;19963;-66
2022/05/07 05:00:03;;;;;;;;;;;;;;;;;;5021850;28;19924;-65
2022/05/07 05:02:29;;;;;;;;;;;;;;;;;;5005949;28;19990;-66
2022/05/07 05:04:55;;;;;;;;;;;;;;;;;;5027510;28;20247;-66
2022/05/07 05:07:21;;;;;;;;;;;;;;;;;;5005144;28;20355;-66
2022/05/07 05:09:47;;;;;;;;;;;;;;;;;;5008229;28;19971;-66
2022/05/07 05:12:13;;;;;;;;;;;;;;;;;;5008407;28;19928;-66
2022/05/07 05:17:23;;;;;;;;;;;;;;;;;;5006935;28;19942;-66
2022/05/07 05:19:49;;;;;;;;;;;;;;;;;;5003410;28;19921;-65
2022/05/07 05:22:15;;;;;;;;;;;;;;;;;;5004857;28;20329;-65
2022/05/07 05:24:41;;;;;;;;;;;;;;;;;;4999477;28;19960;-66
2022/05/07 05:27:07;;;;;;;;;;;;;;;;;;5006807;28;20008;-66
2022/05/07 05:29:33;;;;;;;;;;;;;;;;;;5006990;28;19925;-66
2022/05/07 05:31:59;;;;;;;;;;;;;;;;;;5004197;28;20425;-66
2022/05/07 05:34:25;;;;;;;;;;;;;;;;;;5006236;28;20469;-65
2022/05/07 05:36:51;;;;;;;;;;;;;;;;;;5003679;28;19917;-66
2022/05/07 05:39:17;;;;;;;;;;;;;;;;;;5008980;28;20524;-65
2022/05/07 05:41:44;;;;;;;;;;;;;;;;;;5007018;28;20286;-65
2022/05/07 05:44:10;;;;;;;;;;;;;;;;;;5008516;28;20315;-65
2022/05/07 05:46:36;;;;;;;;;;;;;;;;;;5003760;28;20409;-65
2022/05/07 05:49:02;;;;;;;;;;;;;;;;;;5004448;28;19969;-65
2022/05/07 05:51:28;;;;;;;;;;;;;;;;;;5006262;28;19971;-66
2022/05/07 05:53:54;;;;;;;;;;;;;;;;;;5003456;28;19921;-66
2022/05/07 05:56:20;;;;;;;;;;;;;;;;;;5005437;28;19916;-66
2022/05/07 05:58:46;;;;;;;;;;;;;;;;;;5007100;28;20412;-66
2022/05/07 06:01:12;;;;;;;;;;;;;;;;;;5008425;28;20245;-66
2022/05/07 06:03:38;;;;;;;;;;;;;;;;;;5007434;28;19925;-65
2022/05/07 06:06:04;;;;;;;;;;;;;;;;;;5014407;28;20004;-65
2022/05/07 06:08:30;;;;;;;;;;;;;;;;;;5028246;28;20031;-65
2022/05/07 06:10:57;;;;;;;;;;;;;;;;;;5023478;28;20086;-66
2022/05/07 06:13:23;;;;;;;;;;;;;;;;;;5006545;28;19970;-66
2022/05/07 06:15:52;;;;;;;;;;;;;;;;;;5020462;28;19917;-66
2022/05/07 06:18:18;;;;;;;;;;;;;;;;;;5006184;28;20269;-67
2022/05/07 06:20:44;;;;;;;;;;;;;;;;;;5002755;28;19962;-66
2022/05/07 06:23:10;;;;;;;;;;;;;;;;;;5030033;28;20771;-66
2022/05/07 06:28:24;;;;;;;;;;;;;;;;;;5026294;28;20086;-66
2022/05/07 06:30:50;;;;;;;;;;;;;;;;;;5025177;28;20591;-66
2022/05/07 06:33:17;;;;;;;;;;;;;;;;;;5009784;28;19989;-66
2022/05/07 06:35:43;;;;;;;;;;;;;;;;;;4999842;28;19921;-66
2022/05/07 06:38:09;;;;;;;;;;;;;;;;;;5023669;28;20283;-65
2022/05/07 06:40:38;;;;;;;;;;;;;;;;;;5030124;28;20373;-65
2022/05/07 06:43:04;;;;;;;;;;;;;;;;;;5028673;28;19971;-65
2022/05/07 06:45:30;;;;;;;;;;;;;;;;;;5026595;28;20696;-67
2022/05/07 06:47:56;;;;;;;;;;;;;;;;;;5024486;28;20526;-65
2022/05/07 06:50:22;;;;;;;;;;;;;;;;;;5026371;28;20366;-65
2022/05/07 06:52:48;;;;;;;;;;;;;;;;;;5019929;28;19932;-68
2022/05/07 06:55:14;;;;;;;;;;;;;;;;;;5024731;28;20047;-65
2022/05/07 06:57:40;;;;;;;;;;;;;;;;;;5021811;28;19967;-65
2022/05/07 07:00:06;;;;;;;;;;;;;;;;;;5028561;28;20323;-67
2022/05/07 07:02:32;;;;;;;;;;;;;;;;;;5028391;28;19920;-66
2022/05/07 07:05:00;;;;;;;;;;;;;;;;;;5007876;28;19917;-67
2022/05/07 07:07:26;;;;;;;;;;;;;;;;;;5027332;28;19925;-67
2022/05/07 07:09:52;;;;;;;;;;;;;;;;;;5028460;28;20455;-67
2022/05/07 07:12:20;;;;;;;;;;;;;;;;;;5011477;28;19917;-66
2022/05/07 07:14:47;;;;;;;;;;;;;;;;;;5024514;28;19916;-66
2022/05/07 07:17:13;;;;;;;;;;;;;;;;;;5030121;28;19920;-66
2022/05/07 07:19:41;;;;;;;;;;;;;;;;;;5011470;28;19928;-66
2022/05/07 07:22:07;;;;;;;;;;;;;;;;;;5031185;28;19993;-66
2022/05/07 07:24:33;;;;;;;;;;;;;;;;;;5035933;28;19924;-66
2022/05/07 07:26:59;;;;;;;;;;;;;;;;;;5026116;28;19920;-68
2022/05/07 07:29:25;;;;;;;;;;;;;;;;;;5017226;28;19974;-68
2022/05/07 07:31:51;;;;;;;;;;;;;;;;;;5011703;28;20279;-66
2022/05/07 07:34:17;;;;;;;;;;;;;;;;;;5035350;28;20290;-66
2022/05/07 07:36:46;;;;;;;;;;;;;;;;;;5026766;28;19917;-66
2022/05/07 07:39:12;;;;;;;;;;;;;;;;;;5016899;28;19936;-63
2022/05/07 07:41:38;;;;;;;;;;;;;;;;;;5011492;28;20015;-62
2022/05/07 07:44:04;;;;;;;;;;;;;;;;;;5029572;28;19974;-63
2022/05/07 07:49:15;;;;;;;;;;;;;;;;;;5024719;28;20525;-63
2022/05/07 07:51:41;;;;;;;;;;;;;;;;;;4989676;28;20612;-63
2022/05/07 07:54:07;;;;;;;;;;;;;;;;;;5013868;28;19921;-63
2022/05/07 07:56:33;;;;;;;;;;;;;;;;;;5031083;28;19924;-63
2022/05/07 07:58:59;;;;;;;;;;;;;;;;;;5031839;28;19916;-63
2022/05/07 08:01:25;;;;;;;;;;;;;;;;;;5027340;28;20459;-63
2022/05/07 08:03:51;;;;;;;;;;;;;;;;;;5033528;28;20006;-63
2022/05/07 08:06:17;;;;;;;;;;;;;;;;;;5038593;28;20037;-63
2022/05/07 08:11:40;;;;;;;;;;;;;;;;;;5027291;28;20368;-63
2022/05/07 08:14:08;;;;;;;;;;;;;;;;;;5020364;28;20008;-71
2022/05/07 08:16:34;;;;;;;;;;;;;;;;;;5012795;28;20468;-71
2022/05/07 08:19:00;;;;;;;;;;;;;;;;;;5026790;28;20017;-71
2022/05/07 08:21:26;;;;;;;;;;;;;;;;;;5031606;28;19913;-71
2022/05/07 08:23:52;;;;;;;;;;;;;;;;;;5023507;28;19916;-70
2022/05/07 08:26:18;;;;;;;;;;;;;;;;;;5024337;28;19927;-68
2022/05/07 08:28:44;;;;;;;;;;;;;;;;;;5020391;28;19932;-69
2022/05/07 08:31:10;;;;;;;;;;;;;;;;;;5025426;28;19917;-68
2022/05/07 08:33:39;;;;;;;;;;;;;;;;;;5016160;28;20642;-67
2022/05/07 08:36:05;;;;;;;;;;;;;;;;;;5024639;28;19916;-67
2022/05/07 08:38:31;;;;;;;;;;;;;;;;;;5007750;28;19990;-67
2022/05/07 08:40:56;;;;;;;;;;;;;;;;;;5008357;28;19928;-68
2022/05/07 08:43:25;;;;;;;;;;;;;;;;;;5027987;28;19916;-68
2022/05/07 08:45:52;;;;;;;;;;;;;;;;;;5017488;28;20285;-69
2022/05/07 08:48:18;;;;;;;;;;;;;;;;;;5020948;28;19931;-69
2022/05/07 08:50:44;;;;;;;;;;;;;;;;;;5017345;28;20244;-69
2022/05/07 08:53:10;;;;;;;;;;;;;;;;;;5022792;28;19935;-69
2022/05/07 08:55:36;;;;;;;;;;;;;;;;;;5006524;28;19974;-69
2022/05/07 08:58:02;;;;;;;;;;;;;;;;;;5023698;28;19962;-69
2022/05/07 09:00:28;;;;;;;;;;;;;;;;;;5021957;28;20004;-69
2022/05/07 09:02:55;;;;;;;;;;;;;;;;;;5019743;28;20038;-69
2022/05/07 09:05:21;;;;;;;;;;;;;;;;;;4998331;28;19917;-69
2022/05/07 09:07:47;;;;;;;;;;;;;;;;;;5012579;28;19929;-67
2022/05/07 09:10:13;;;;;;;;;;;;;;;;;;5008910;28;20031;-70
2022/05/07 09:12:39;;;;;;;;;;;;;;;;;;5003959;28;19923;-69
2022/05/07 09:15:05;;;;;;;;;;;;;;;;;;5023508;28;20355;-69
2022/05/07 09:17:31;;;;;;;;;;;;;;;;;;5018058;28;19916;-69
2022/05/07 09:19:57;;;;;;;;;;;;;;;;;;5004196;28;19928;-69
2022/05/07 09:22:25;;;;;;;;;;;;;;;;;;5019941;28;20293;-69
2022/05/07 09:24:52;;;;;;;;;;;;;;;;;;4995928;28;19917;-69
2022/05/07 09:27:18;;;;;;;;;;;;;;;;;;4969334;28;19917;-69
2022/05/07 09:29:44;;;;;;;;;;;;;;;;;;5026219;28;19928;-69
2022/05/07 09:32:13;;;;;;;;;;;;;;;;;;5031426;28;19938;-68
2022/05/07 09:37:23;;;;;;;;;;;;;;;;;;5033289;28;20263;-68
2022/05/07 09:39:49;;;;;;;;;;;;;;;;;;5031084;28;20377;-68
2022/05/07 09:42:15;;;;;;;;;;;;;;;;;;5017867;28;19916;-70
2022/05/07 09:44:42;;;;;;;;;;;;;;;;;;5035081;28;19913;-69
2022/05/07 09:47:09;;;;;;;;;;;;;;;;;;5044484;28;19916;-70
2022/05/07 09:49:35;;;;;;;;;;;;;;;;;;5015933;28;20382;-70
2022/05/07 09:52:01;;;;;;;;;;;;;;;;;;5025079;28;19921;-70
2022/05/07 09:57:32;;;;;;;;;;;;;;;;;;5036297;28;19971;-70
2022/05/07 09:59:58;;;;;;;;;;;;;;;;;;5019562;28;21103;-68
2022/05/07 10:02:24;;;;;;;;;;;;;;;;;;4974021;28;19921;-67
2022/05/07 10:04:50;;;;;;;;;;;;;;;;;;4974225;28;20577;-68
2022/05/07 10:07:16;;;;;;;;;;;;;;;;;;4958083;28;19975;-68
2022/05/07 10:09:45;;;;;;;;;;;;;;;;;;4966161;28;20212;-67
2022/05/07 10:12:11;;;;;;;;;;;;;;;;;;4954643;28;19946;-67
2022/05/07 10:14:42;;;;;;;;;;;;;;;;;;4944646;28;20335;-68
2022/05/07 10:17:08;;;;;;;;;;;;;;;;;;4956620;28;20393;-68
2022/05/07 10:19:34;;;;;;;;;;;;;;;;;;4960843;28;20376;-68
2022/05/07 10:22:00;;;;;;;;;;;;;;;;;;4964138;28;19917;-67
2022/05/07 10:24:26;;;;;;;;;;;;;;;;;;4956981;28;19918;-67
2022/05/07 10:26:52;;;;;;;;;;;;;;;;;;4957879;28;19920;-68
2022/05/07 10:29:19;;;;;;;;;;;;;;;;;;4948630;28;19995;-69
2022/05/07 10:31:57;;;;;;;;;;;;;;;;;;4944279;28;19971;-68
2022/05/07 10:34:25;;;;;;;;;;;;;;;;;;4954496;28;20292;-68
2022/05/07 10:36:51;;;;;;;;;;;;;;;;;;4952044;28;19925;-69
2022/05/07 10:39:17;;;;;;;;;;;;;;;;;;4989650;28;19920;-68
2022/05/07 10:41:44;;;;;;;;;;;;;;;;;;5006327;28;19917;-69
2022/05/07 10:44:10;;;;;;;;;;;;;;;;;;5009033;28;19913;-70
2022/05/07 10:46:36;;;;;;;;;;;;;;;;;;5012858;28;20480;-70
2022/05/07 10:49:04;;;;;;;;;;;;;;;;;;5019487;28;19956;-70
2022/05/07 10:51:30;;;;;;;;;;;;;;;;;;5016641;28;20272;-67
2022/05/07 10:54:00;;;;;;;;;;;;;;;;;;5006029;28;19928;-67
2022/05/07 10:56:26;;;;;;;;;;;;;;;;;;5005697;28;19913;-66
2022/05/07 10:58:52;;;;;;;;;;;;;;;;;;5001539;28;20138;-66
2022/05/07 11:01:18;;;;;;;;;;;;;;;;;;5008195;28;19956;-66
2022/05/07 11:03:44;;;;;;;;;;;;;;;;;;5005330;28;20008;-66
2022/05/07 11:06:10;;;;;;;;;;;;;;;;;;5008975;28;19956;-66
2022/05/07 11:08:36;;;;;;;;;;;;;;;;;;5008267;28;19925;-66
2022/05/07 11:11:02;;;;;;;;;;;;;;;;;;5010058;28;20007;-67
2022/05/07 11:13:29;;;;;;;;;;;;;;;;;;5007447;28;19917;-67
2022/05/07 11:15:55;;;;;;;;;;;;;;;;;;5013991;28;20287;-66
2022/05/07 11:18:21;;;;;;;;;;;;;;;;;;5017147;28;19924;-67
2022/05/07 11:20:47;;;;;;;;;;;;;;;;;;5010583;28;19918;-66
2022/05/07 11:23:13;;;;;;;;;;;;;;;;;;5017773;28;19940;-66
2022/05/07 11:25:40;;;;;;;;;;;;;;;;;;5004992;28;20374;-67
2022/05/07 11:28:06;;;;;;;;;;;;;;;;;;5013980;28;20615;-66
2022/05/07 11:30:32;;;;;;;;;;;;;;;;;;5009008;28;20351;-66
2022/05/07 11:32:58;;;;;;;;;;;;;;;;;;5003112;28;20200;-66
2022/05/07 11:35:24;;;;;;;;;;;;;;;;;;5013517;28;19927;-67
2022/05/07 11:37:50;;;;;;;;;;;;;;;;;;5006062;28;20035;-68
2022/05/07 11:40:16;;;;;;;;;;;;;;;;;;5004626;28;20024;-67
2022/05/07 11:42:46;;;;;;;;;;;;;;;;;;5003280;28;20229;-68
2022/05/07 11:45:29;;;;;;;;;;;;;;;;;;5009728;28;19921;-66
2022/05/07 11:47:55;;;;;;;;;;;;;;;;;;5011416;28;20442;-66
2022/05/07 11:50:22;;;;;;;;;;;;;;;;;;5015560;28;20416;-66
2022/05/07 11:52:48;;;;;;;;;;;;;;;;;;5005760;28;19917;-66
2022/05/07 11:55:14;;;;;;;;;;;;;;;;;;5007752;28;19992;-67
2022/05/07 11:57:44;;;;;;;;;;;;;;;;;;5018256;28;20018;-66
2022/05/07 12:00:10;;;;;;;;;;;;;;;;;;5017655;28;20593;-68
2022/05/07 12:02:36;;;;;;;;;;;;;;;;;;5017170;28;20571;-67
2022/05/07 12:05:02;;;;;;;;;;;;;;;;;;5020500;28;19932;-67
2022/05/07 12:07:28;;;;;;;;;;;;;;;;;;5014804;28;19928;-68
2022/05/07 12:09:54;;;;;;;;;;;;;;;;;;5009092;28;19932;-68
2022/05/07 12:12:20;;;;;;;;;;;;;;;;;;5011054;28;20260;-67
2022/05/07 12:14:46;;;;;;;;;;;;;;;;;;5006293;28;19917;-67
2022/05/07 12:19:57;;;;;;;;;;;;;;;;;;5016240;28;20435;-68
2022/05/07 12:30:40;;;;;;;;;;;;;;;;;;5017300;28;19923;-68
2022/05/07 12:33:07;;;;;;;;;;;;;;;;;;5011764;28;20356;-68
2022/05/07 12:35:32;;;;;;;;;;;;;;;;;;5012019;28;19928;-68
2022/05/07 12:37:58;;;;;;;;;;;;;;;;;;5012415;28;19917;-69
2022/05/07 12:40:25;;;;;;;;;;;;;;;;;;5015059;28;19944;-67
2022/05/07 12:42:50;;;;;;;;;;;;;;;;;;5007112;28;19917;-68
2022/05/07 12:45:16;;;;;;;;;;;;;;;;;;5020355;28;20335;-68
2022/05/07 12:47:42;;;;;;;;;;;;;;;;;;5005489;28;20264;-68
2022/05/07 12:50:08;;;;;;;;;;;;;;;;;;5009465;28;20075;-68
2022/05/07 12:52:34;;;;;;;;;;;;;;;;;;5012775;28;19916;-68
2022/05/07 12:55:00;;;;;;;;;;;;;;;;;;5010151;28;20287;-68
2022/05/07 12:57:27;;;;;;;;;;;;;;;;;;5020055;28;19916;-69
2022/05/07 12:59:53;;;;;;;;;;;;;;;;;;5013131;28;20392;-68
2022/05/07 13:02:19;;;;;;;;;;;;;;;;;;5009720;28;21113;-68
2022/05/07 13:04:46;;;;;;;;;;;;;;;;;;5007403;28;19925;-68
2022/05/07 13:07:12;;;;;;;;;;;;;;;;;;5025540;28;19929;-68
2022/05/07 13:09:38;;;;;;;;;;;;;;;;;;5027570;28;19928;-68
2022/05/07 13:12:04;;;;;;;;;;;;;;;;;;5029460;28;20268;-68
2022/05/07 13:14:30;;;;;;;;;;;;;;;;;;5012790;28;20361;-68
2022/05/07 13:16:56;;;;;;;;;;;;;;;;;;5027874;28;23060;-68
2022/05/07 13:19:22;;;;;;;;;;;;;;;;;;5025836;28;19917;-68
2022/05/07 13:21:48;;;;;;;;;;;;;;;;;;5026401;28;19917;-68
2022/05/07 13:24:15;;;;;;;;;;;;;;;;;;5031159;28;19920;-68
2022/05/07 13:26:41;;;;;;;;;;;;;;;;;;5028809;28;20008;-69
2022/05/07 13:29:09;;;;;;;;;;;;;;;;;;5030178;28;19925;-69
2022/05/07 13:31:37;;;;;;;;;;;;;;;;;;5029585;28;20267;-68
2022/05/07 13:34:04;;;;;;;;;;;;;;;;;;5026745;28;20015;-69
2022/05/07 13:36:30;;;;;;;;;;;;;;;;;;5028774;28;20533;-70
2022/05/07 13:38:56;;;;;;;;;;;;;;;;;;5026786;28;21928;-69
2022/05/07 13:41:22;;;;;;;;;;;;;;;;;;5031126;28;19990;-69
2022/05/07 13:43:48;;;;;;;;;;;;;;;;;;5026079;28;20469;-67
2022/05/07 13:46:14;;;;;;;;;;;;;;;;;;5027769;28;19943;-69
2022/05/07 13:48:40;;;;;;;;;;;;;;;;;;5009330;28;20471;-68
2022/05/07 13:51:06;;;;;;;;;;;;;;;;;;5012860;28;19924;-69
2022/05/07 13:53:32;;;;;;;;;;;;;;;;;;5028464;28;19916;-68
2022/05/07 13:55:58;;;;;;;;;;;;;;;;;;5022393;28;19924;-69
2022/05/07 13:58:24;;;;;;;;;;;;;;;;;;5010760;28;19997;-68
2022/05/07 14:00:51;;;;;;;;;;;;;;;;;;5012669;28;20389;-69
2022/05/07 14:03:17;;;;;;;;;;;;;;;;;;5015532;28;20063;-69
2022/05/07 14:05:43;;;;;;;;;;;;;;;;;;5036273;28;20417;-69
2022/05/07 14:08:09;;;;;;;;;;;;;;;;;;5036920;28;19925;-68
2022/05/07 14:10:35;;;;;;;;;;;;;;;;;;5047202;28;19922;-69
2022/05/07 14:13:01;;;;;;;;;;;;;;;;;;5014909;28;19924;-69
2022/05/07 14:15:28;;;;;;;;;;;;;;;;;;5007796;28;19917;-69
2022/05/07 14:17:55;;;;;;;;;;;;;;;;;;5025884;28;19948;-69
2022/05/07 14:20:20;;;;;;;;;;;;;;;;;;5027222;28;20451;-69
2022/05/07 14:22:47;;;;;;;;;;;;;;;;;;5024521;28;20071;-69
2022/05/07 14:25:13;;;;;;;;;;;;;;;;;;5010939;28;20508;-68
2022/05/07 14:27:40;;;;;;;;;;;;;;;;;;5025012;28;19917;-68
2022/05/07 14:30:06;;;;;;;;;;;;;;;;;;5007299;28;19921;-68
2022/05/07 14:32:32;;;;;;;;;;;;;;;;;;5030355;28;20413;-69
2022/05/07 14:34:58;;;;;;;;;;;;;;;;;;5025847;28;19925;-70
2022/05/07 14:37:24;;;;;;;;;;;;;;;;;;5037686;28;19923;-72
2022/05/07 14:39:49;;;;;;;;;;;;;;;;;;5004624;28;19917;-70
2022/05/07 14:42:17;;;;;;;;;;;;;;;;;;5028329;28;19916;-71
2022/05/07 14:44:43;;;;;;;;;;;;;;;;;;5001735;28;20030;-69
2022/05/07 14:47:08;;;;;;;;;;;;;;;;;;5006077;28;20070;-67
2022/05/07 14:49:34;;;;;;;;;;;;;;;;;;5023905;28;19927;-67
2022/05/07 14:52:00;;;;;;;;;;;;;;;;;;5020248;28;20005;-68
2022/05/07 14:54:26;;;;;;;;;;;;;;;;;;5023241;28;20266;-68
2022/05/07 14:56:52;;;;;;;;;;;;;;;;;;5016921;28;19924;-68
2022/05/07 14:59:18;;;;;;;;;;;;;;;;;;5024962;28;19916;-69
2022/05/07 15:01:44;;;;;;;;;;;;;;;;;;5017758;28;19917;-68
2022/05/07 15:04:10;;;;;;;;;;;;;;;;;;5024515;28;20335;-67
2022/05/07 15:06:36;;;;;;;;;;;;;;;;;;5005829;28;19921;-67
2022/05/07 15:11:47;;;;;;;;;;;;;;;;;;5020957;28;19924;-68
2022/05/07 15:14:14;;;;;;;;;;;;;;;;;;5026891;28;19917;-67
2022/05/07 15:16:42;;;;;;;;;;;;;;;;;;5003092;28;20069;-66
2022/05/07 15:19:08;;;;;;;;;;;;;;;;;;5028883;28;20262;-65
2022/05/07 15:21:34;;;;;;;;;;;;;;;;;;5033148;28;20100;-65
2022/05/07 15:24:00;;;;;;;;;;;;;;;;;;5027364;28;19917;-65
2022/05/07 15:26:26;;;;;;;;;;;;;;;;;;5023313;28;20202;-65
2022/05/07 15:28:53;;;;;;;;;;;;;;;;;;5026507;28;20015;-65
2022/05/07 15:31:19;;;;;;;;;;;;;;;;;;5033175;28;19916;-66
2022/05/07 15:36:48;;;;;;;;;;;;;;;;;;5032081;28;19947;-66
2022/05/07 15:39:14;;;;;;;;;;;;;;;;;;5011667;28;20420;-65
2022/05/07 15:41:40;;;;;;;;;;;;;;;;;;5029024;28;20019;-65
2022/05/07 15:44:06;;;;;;;;;;;;;;;;;;5033087;28;19916;-64
2022/05/07 15:46:33;;;;;;;;;;;;;;;;;;5011850;28;19974;-66
2022/05/07 15:48:59;;;;;;;;;;;;;;;;;;5026356;28;19971;-66
2022/05/07 15:51:27;;;;;;;;;;;;;;;;;;5014471;28;20039;-66
2022/05/07 15:53:54;;;;;;;;;;;;;;;;;;5024045;28;19916;-66
2022/05/07 15:56:20;;;;;;;;;;;;;;;;;;5028222;28;20438;-66
2022/05/07 15:58:46;;;;;;;;;;;;;;;;;;5030774;28;20362;-69
2022/05/07 16:01:12;;;;;;;;;;;;;;;;;;5031783;28;19923;-69
2022/05/07 16:03:38;;;;;;;;;;;;;;;;;;5026098;28;20452;-69
2022/05/07 16:06:07;;;;;;;;;;;;;;;;;;5013827;28;19921;-69
2022/05/07 16:08:33;;;;;;;;;;;;;;;;;;5036761;28;19983;-69
2022/05/07 16:10:59;;;;;;;;;;;;;;;;;;5032154;28;19924;-69
2022/05/07 16:13:25;;;;;;;;;;;;;;;;;;5038420;28;19916;-69
2022/05/07 16:15:54;;;;;;;;;;;;;;;;;;5035470;28;19917;-68
2022/05/07 16:18:20;;;;;;;;;;;;;;;;;;5018949;28;20043;-71
2022/05/07 16:20:46;;;;;;;;;;;;;;;;;;5004418;28;20285;-70
2022/05/07 16:25:57;;;;;;;;;;;;;;;;;;5026439;28;21136;-70
2022/05/07 16:28:23;;;;;;;;;;;;;;;;;;5012059;28;19921;-71
2022/05/07 16:30:51;;;;;;;;;;;;;;;;;;5026354;28;19925;-70
2022/05/07 16:33:17;;;;;;;;;;;;;;;;;;5014983;28;19913;-70
2022/05/07 16:35:43;;;;;;;;;;;;;;;;;;5009190;28;20448;-69
2022/05/07 16:38:09;;;;;;;;;;;;;;;;;;5033057;28;20171;-70
2022/05/07 16:40:35;;;;;;;;;;;;;;;;;;5009957;28;19920;-69
2022/05/07 16:43:01;;;;;;;;;;;;;;;;;;5029005;28;19913;-69
2022/05/07 16:45:28;;;;;;;;;;;;;;;;;;5031085;28;19956;-69
2022/05/07 16:47:54;;;;;;;;;;;;;;;;;;5010700;28;20466;-69
2022/05/07 16:50:21;;;;;;;;;;;;;;;;;;5011472;28;19925;-69
2022/05/07 16:52:47;;;;;;;;;;;;;;;;;;5012188;28;19924;-69
2022/05/07 16:55:13;;;;;;;;;;;;;;;;;;5016303;28;19938;-70
2022/05/07 16:57:39;;;;;;;;;;;;;;;;;;5030412;28;19916;-68
2022/05/07 17:00:05;;;;;;;;;;;;;;;;;;5038536;28;20285;-69
2022/05/07 17:02:31;;;;;;;;;;;;;;;;;;5038513;28;20225;-69
2022/05/07 17:04:57;;;;;;;;;;;;;;;;;;5030879;28;19932;-71
2022/05/07 17:07:24;;;;;;;;;;;;;;;;;;5034061;28;19928;-69
2022/05/07 17:09:50;;;;;;;;;;;;;;;;;;5030285;28;19929;-69
2022/05/07 17:12:16;;;;;;;;;;;;;;;;;;5030462;28;19962;-69
2022/05/07 17:14:42;;;;;;;;;;;;;;;;;;5014351;28;19923;-69
2022/05/07 17:17:08;;;;;;;;;;;;;;;;;;5020396;28;19924;-69
2022/05/07 17:19:34;;;;;;;;;;;;;;;;;;5031881;28;20362;-69
2022/05/07 17:22:03;;;;;;;;;;;;;;;;;;5026914;28;19923;-69
2022/05/07 17:24:29;;;;;;;;;;;;;;;;;;5034412;28;19917;-69